New Philadelphia, OH (44663)

10:08 PM EDT on August 31, 2016 (GMT -0400)
Steele Hill | | Change Station

Elev 942 ft 40.48 °N, 81.48 °W | Updated 24 seconds ago

Overcast
Overcast
70.5 °F
Feels Like 70.5 °F
N
0.0
Wind Variable Wind from SSE
Gusts 0.0 mph

Today
High -- | Low -- °F
--% Chance of Precip.
Yesterday
High -- | Low -- °F
Precip. -- in
Pressure 29.95 in
Visibility 5.0 miles
Clouds Mostly Cloudy 600 ft
Overcast 1000 ft
Dew Point 70 °F
Humidity 97%
Rainfall 1.40 in
Snow Depth Not available.
6:52 AM 7:58 PM
Waning Crescent, 0% visible
METAR KPHD 010153Z AUTO 00000KT 5SM BR BKN006 OVC010 23/21 A2997 RMK AO2 RAE0056 CIG 005V009 SLP142 P0000 T02280206
Pressure 29.95 in
Visibility 5.0 miles
Clouds Mostly Cloudy 600 ft
Overcast 1000 ft
Dew Point 70 °F
Humidity 97%
Rainfall 1.40 in
Snow Depth Not available.
6:52 AM 7:58 PM
Waning Crescent, 0% visible
METAR KPHD 010153Z AUTO 00000KT 5SM BR BKN006 OVC010 23/21 A2997 RMK AO2 RAE0056 CIG 005V009 SLP142 P0000 T02280206

10-Day Weather Forecast

Almanac

Astronomy

Aug. 31, 2016 Rise Set
Actual Time
Civil Twilight
Nautical Twilight
Astronomical Twilight
Moon
Length of Visible Light
Length of Day
Tomorrow will be .
, % of the Moon is Illuminated

Today's Extremes

State Highs State Lows

Community

WunderPhotos

Upload Photos

1,936,268 photos uploaded!

WunderBlog® & News

Nearby

Air Quality

  Air Quality AQ Index Pollutant
Not available.

Snow Depth

Station Depth Elevation

Earthquake Activity

City Distance Mag. Time & Date
Minimum magnitude displayed is 2.5.

Coastal Water Temperatures

Place Temperature

Stations

Nearby Weather Stations

Station Location Temp. Windchill Dew Point Humidity Wind Precip. Elev Updated Type
                   

Watches & Warnings

There are currently no watches in effect.